Time;durP1;ratioP1;P1;durP2;ratioP2;P2;SDS_P1;SDS_P2;PMS_P1;PMS_P2;Temp;Humidity;BMP_temperature;BMP_pressure;BME280_temperature;BME280_humidity;BME280_pressure;Samples;Min_cycle;Max_cycle;Signal;HPM_P1;HPM_P2
2022/08/26 00:01:54;;;;;;;5.13;3.95;;;25.70;63.80;;;;;;4908765;29;20194;-72
2022/08/26 00:04:26;;;;;;;3.83;3.33;;;25.70;63.90;;;;;;4897739;29;20186;-72
2022/08/26 00:06:56;;;;;;;5.22;3.13;;;25.70;64.00;;;;;;4910108;29;20301;-74
2022/08/26 00:09:25;;;;;;;3.90;3.50;;;25.80;64.20;;;;;;4916070;29;20183;-73
2022/08/26 00:11:54;;;;;;;4.25;3.15;;;25.80;64.30;;;;;;4912785;29;20274;-72
2022/08/26 00:14:22;;;;;;;5.47;3.45;;;25.80;64.40;;;;;;4920779;29;20294;-73
2022/08/26 00:16:47;;;;;;;4.93;3.60;;;25.80;64.60;;;;;;4908990;29;20218;-73
2022/08/26 00:19:16;;;;;;;4.65;4.07;;;25.80;64.70;;;;;;4923740;29;20191;-73
2022/08/26 00:21:44;;;;;;;4.57;4.03;;;25.80;65.70;;;;;;4911048;29;20262;-72
2022/08/26 00:24:10;;;;;;;6.68;4.45;;;25.70;65.30;;;;;;4915330;29;20190;-73
2022/08/26 00:26:41;;;;;;;5.05;4.53;;;25.80;65.80;;;;;;4901084;29;20246;-73
2022/08/26 00:29:09;;;;;;;5.82;4.50;;;25.70;66.50;;;;;;4905844;29;20179;-73
2022/08/26 00:31:35;;;;;;;6.10;4.30;;;25.70;66.70;;;;;;4913118;29;20214;-73
2022/08/26 00:34:01;;;;;;;5.68;4.90;;;25.70;66.70;;;;;;4907669;29;20195;-73
2022/08/26 00:36:27;;;;;;;5.78;5.18;;;25.60;67.00;;;;;;4895260;29;20183;-73
2022/08/26 00:38:54;;;;;;;5.95;4.88;;;25.60;67.60;;;;;;4901278;29;20190;-73
2022/08/26 00:41:20;;;;;;;6.63;5.05;;;25.60;68.10;;;;;;4918998;29;20206;-73
2022/08/26 00:43:46;;;;;;;6.15;5.53;;;25.50;69.10;;;;;;4902658;29;20175;-73
2022/08/26 00:46:27;;;;;;;5.78;5.05;;;25.50;68.70;;;;;;4898495;29;20215;-73
2022/08/26 00:49:14;;;;;;;6.22;5.63;;;25.50;70.10;;;;;;4901118;29;20270;-73
2022/08/26 00:51:46;;;;;;;6.43;5.82;;;25.40;70.10;;;;;;4903323;29;20242;-73
2022/08/26 00:54:12;;;;;;;6.82;6.20;;;25.40;70.50;;;;;;4902679;29;20187;-73
2022/08/26 00:57:03;;;;;;;6.97;6.30;;;25.40;70.40;;;;;;4914128;29;20193;-73
2022/08/26 00:59:32;;;;;;;6.85;6.15;;;25.40;72.00;;;;;;4919702;29;20198;-72
2022/08/26 01:02:02;;;;;;;7.95;6.50;;;25.30;71.20;;;;;;4901774;29;20221;-71
2022/08/26 01:04:30;;;;;;;8.90;7.13;;;25.30;72.00;;;;;;4899674;29;20198;-71
2022/08/26 01:06:59;;;;;;;7.65;6.95;;;25.30;72.60;;;;;;4900899;29;20229;-71
2022/08/26 01:09:25;;;;;;;8.88;7.93;;;25.20;72.60;;;;;;4901934;29;20230;-71
2022/08/26 01:11:55;;;;;;;9.52;8.15;;;25.20;73.10;;;;;;4903435;29;20246;-72
2022/08/26 01:14:25;;;;;;;8.65;7.75;;;25.20;74.70;;;;;;4917003;29;20274;-70
2022/08/26 01:16:51;;;;;;;10.35;8.88;;;25.20;74.30;;;;;;4915521;29;20266;-71
2022/08/26 01:19:31;;;;;;;9.82;8.23;;;25.10;74.60;;;;;;4916139;29;20191;-70
2022/08/26 01:22:05;;;;;;;8.48;7.57;;;25.10;75.10;;;;;;4902956;29;20203;-70
2022/08/26 01:24:31;;;;;;;10.50;8.65;;;25.00;75.90;;;;;;4900443;29;20302;-70
2022/08/26 01:27:08;;;;;;;10.18;8.48;;;25.00;76.00;;;;;;4899928;29;20262;-69
2022/08/26 01:29:36;;;;;;;11.75;8.98;;;24.90;76.60;;;;;;4931271;29;20170;-71
2022/08/26 01:32:04;;;;;;;11.00;9.93;;;24.90;77.30;;;;;;4919246;29;20269;-71
2022/08/26 01:34:36;;;;;;;12.02;10.48;;;24.90;78.00;;;;;;4911250;29;20187;-70
2022/08/26 01:37:22;;;;;;;13.25;10.75;;;24.80;79.80;;;;;;4904382;29;20204;-70
2022/08/26 01:39:50;;;;;;;11.75;10.38;;;24.80;81.40;;;;;;4899383;29;20213;-71
2022/08/26 01:42:21;;;;;;;10.95;9.85;;;24.80;80.30;;;;;;4916362;29;20207;-71
2022/08/26 01:44:56;;;;;;;12.95;11.60;;;24.70;80.40;;;;;;4906689;29;20265;-68
2022/08/26 01:47:24;;;;;;;12.75;11.55;;;24.70;83.30;;;;;;4912182;29;20178;-71
2022/08/26 01:49:54;;;;;;;14.05;11.65;;;24.70;83.70;;;;;;4914136;29;20190;-71
2022/08/26 01:52:24;;;;;;;13.30;10.85;;;24.60;84.30;;;;;;4919305;29;20265;-70
2022/08/26 01:54:52;;;;;;;14.95;13.40;;;24.60;86.60;;;;;;4898462;29;20186;-69
2022/08/26 01:57:20;;;;;;;14.38;12.98;;;24.50;87.70;;;;;;4908356;29;20205;-72
2022/08/26 01:59:51;;;;;;;13.98;12.57;;;24.50;89.00;;;;;;4893687;29;20179;-71
2022/08/26 02:02:19;;;;;;;15.65;14.05;;;24.50;89.50;;;;;;4915806;29;20203;-71
2022/08/26 02:04:49;;;;;;;15.93;13.48;;;24.40;90.50;;;;;;4899590;29;20218;-72
2022/08/26 02:07:21;;;;;;;17.30;14.55;;;24.40;91.20;;;;;;4900073;29;20203;-71
2022/08/26 02:09:49;;;;;;;14.48;13.07;;;24.30;91.60;;;;;;4892642;29;20209;-71
2022/08/26 02:12:18;;;;;;;16.40;14.75;;;24.30;92.20;;;;;;4913348;29;20254;-68
2022/08/26 02:14:52;;;;;;;15.85;14.18;;;24.20;93.40;;;;;;4898497;29;20209;-71
2022/08/26 02:17:27;;;;;;;19.33;15.98;;;24.20;94.30;;;;;;4898916;29;20190;-71
2022/08/26 02:19:55;;;;;;;17.83;15.98;;;24.10;95.90;;;;;;4914355;29;20190;-72
2022/08/26 02:22:27;;;;;;;16.77;14.27;;;24.10;96.50;;;;;;4916751;29;20210;-71
2022/08/26 02:24:56;;;;;;;14.70;12.90;;;24.00;96.00;;;;;;4914931;29;20227;-71
2022/08/26 02:27:27;;;;;;;16.65;14.02;;;23.90;96.50;;;;;;4918021;29;20182;-71
2022/08/26 02:29:59;;;;;;;13.27;11.88;;;23.90;97.40;;;;;;4912154;29;20219;-71
2022/08/26 02:32:25;;;;;;;15.15;13.15;;;23.90;97.40;;;;;;4912446;29;20183;-71
2022/08/26 02:34:50;;;;;;;14.57;13.05;;;23.80;97.40;;;;;;4897262;29;20781;-70
2022/08/26 02:37:19;;;;;;;14.43;12.95;;;23.80;97.30;;;;;;4913969;29;20763;-71
2022/08/26 02:39:47;;;;;;;13.40;12.02;;;23.80;98.20;;;;;;4898542;29;20186;-73
2022/08/26 02:42:12;;;;;;;14.38;12.85;;;23.80;98.10;;;;;;4900589;29;20246;-70
2022/08/26 02:44:38;;;;;;;14.55;12.07;;;23.80;98.60;;;;;;4914871;29;20210;-72
2022/08/26 02:47:08;;;;;;;14.40;11.75;;;23.80;98.70;;;;;;4901232;29;20175;-71
2022/08/26 02:49:35;;;;;;;13.90;12.35;;;23.70;99.20;;;;;;4903154;29;20187;-69
2022/08/26 02:52:01;;;;;;;13.18;11.80;;;23.70;99.40;;;;;;4897151;29;20182;-72
2022/08/26 02:54:27;;;;;;;14.35;12.05;;;23.60;99.30;;;;;;4917141;29;20214;-71
2022/08/26 02:56:52;;;;;;;14.60;13.13;;;23.60;99.70;;;;;;4912470;29;20202;-71
2022/08/26 02:59:20;;;;;;;13.82;11.52;;;23.60;99.90;;;;;;4897805;29;20179;-70
2022/08/26 03:01:48;;;;;;;14.40;11.63;;;23.60;99.90;;;;;;4899851;29;20202;-71
2022/08/26 03:04:18;;;;;;;13.50;11.70;;;23.50;99.90;;;;;;4899905;29;20215;-71
2022/08/26 03:06:44;;;;;;;17.40;12.57;;;23.60;99.90;;;;;;4914913;29;20201;-71
2022/08/26 03:09:10;;;;;;;14.57;11.80;;;23.50;99.90;;;;;;4890433;29;20189;-71
2022/08/26 03:11:36;;;;;;;16.13;11.77;;;23.50;99.90;;;;;;4921533;29;20230;-72
2022/08/26 03:14:05;;;;;;;13.38;11.80;;;23.50;99.90;;;;;;4898927;29;20301;-71
2022/08/26 03:16:33;;;;;;;13.90;12.45;;;23.50;99.90;;;;;;4898245;29;20277;-71
2022/08/26 03:19:01;;;;;;;13.48;12.00;;;23.40;99.90;;;;;;4899231;29;20218;-71
2022/08/26 03:21:27;;;;;;;14.15;12.00;;;23.40;99.90;;;;;;4917210;29;20209;-73
2022/08/26 03:23:53;;;;;;;12.43;11.13;;;23.40;99.90;;;;;;4899840;29;20200;-71
2022/08/26 03:26:19;;;;;;;16.00;12.77;;;23.40;99.90;;;;;;4902153;29;20186;-72
2022/08/26 03:31:48;;;;;;;15.63;13.23;;;23.30;99.90;;;;;;4900484;29;20234;-71
2022/08/26 03:34:14;;;;;;;14.15;12.68;;;23.30;99.90;;;;;;4891161;29;20203;-71
2022/08/26 03:36:40;;;;;;;18.38;15.10;;;23.30;99.90;;;;;;4918199;29;20202;-71
2022/08/26 03:39:06;;;;;;;14.88;13.32;;;23.30;99.90;;;;;;4900873;29;20198;-71
2022/08/26 03:41:35;;;;;;;14.38;12.43;;;23.30;99.90;;;;;;4899589;29;20206;-71
2022/08/26 03:44:03;;;;;;;18.55;16.13;;;23.30;99.90;;;;;;4918589;29;20233;-71
2022/08/26 03:46:32;;;;;;;19.63;16.25;;;23.40;99.90;;;;;;4915346;29;20218;-71
2022/08/26 03:49:00;;;;;;;16.13;13.93;;;23.40;99.90;;;;;;4905550;29;20210;-71
2022/08/26 03:51:28;;;;;;;17.55;14.88;;;23.40;99.90;;;;;;4900515;29;20258;-72
2022/08/26 03:53:57;;;;;;;15.10;12.80;;;23.40;99.90;;;;;;4897731;29;20202;-70
2022/08/26 03:56:26;;;;;;;14.27;12.73;;;23.40;99.90;;;;;;4917089;29;20201;-71
2022/08/26 03:58:55;;;;;;;16.33;12.80;;;23.40;99.90;;;;;;4902285;29;20187;-71
2022/08/26 04:01:23;;;;;;;15.38;12.63;;;23.40;99.90;;;;;;4902818;29;20211;-72
2022/08/26 04:03:57;;;;;;;16.58;13.70;;;23.40;99.90;;;;;;4919542;29;20206;-70
2022/08/26 04:06:30;;;;;;;14.15;12.63;;;23.40;99.90;;;;;;4909980;29;22120;-71
2022/08/26 04:09:02;;;;;;;14.57;13.02;;;23.50;99.90;;;;;;4921562;29;20210;-71
2022/08/26 04:11:30;;;;;;;16.85;13.18;;;23.50;99.90;;;;;;4920850;29;20190;-71
2022/08/26 04:14:00;;;;;;;16.92;14.15;;;23.50;99.90;;;;;;4896408;29;20201;-71
2022/08/26 04:16:28;;;;;;;17.23;13.88;;;23.50;99.90;;;;;;4901559;29;20202;-71
2022/08/26 04:18:57;;;;;;;16.27;13.43;;;23.50;99.90;;;;;;4898403;29;20186;-72
2022/08/26 04:21:28;;;;;;;16.50;14.52;;;23.50;99.90;;;;;;4901255;29;20202;-71
2022/08/26 04:23:56;;;;;;;14.70;13.15;;;23.50;99.90;;;;;;4898131;29;20186;-71
2022/08/26 04:26:23;;;;;;;16.15;13.48;;;23.50;99.90;;;;;;4916254;29;20178;-72
2022/08/26 04:28:51;;;;;;;17.02;13.80;;;23.50;99.90;;;;;;4906096;29;20191;-71
2022/08/26 04:31:17;;;;;;;14.48;11.90;;;23.50;99.90;;;;;;4900276;29;20214;-72
2022/08/26 04:33:45;;;;;;;17.70;14.18;;;23.50;99.90;;;;;;4916683;29;20265;-74
2022/08/26 04:36:11;;;;;;;21.52;16.98;;;23.50;99.90;;;;;;4916338;29;20203;-73
2022/08/26 04:38:36;;;;;;;18.60;13.55;;;23.50;99.90;;;;;;4913016;29;20184;-72
2022/08/26 04:41:05;;;;;;;14.80;13.23;;;23.50;99.90;;;;;;4904404;29;20200;-73
2022/08/26 04:43:31;;;;;;;20.20;16.08;;;23.50;99.90;;;;;;4907865;29;20200;-73
2022/08/26 04:46:00;;;;;;;18.90;15.57;;;23.50;99.90;;;;;;4908864;29;20174;-73
2022/08/26 04:48:27;;;;;;;16.70;14.48;;;23.50;99.90;;;;;;4916685;29;20430;-72
2022/08/26 04:50:56;;;;;;;17.63;14.48;;;23.50;99.90;;;;;;4900614;29;20217;-73
2022/08/26 04:53:22;;;;;;;17.08;15.25;;;23.50;99.90;;;;;;4897603;29;20183;-72
2022/08/26 04:55:50;;;;;;;15.98;12.80;;;23.50;99.90;;;;;;4916397;29;20217;-73
2022/08/26 04:58:20;;;;;;;15.32;12.27;;;23.50;99.90;;;;;;4916963;29;20199;-73
2022/08/26 05:00:47;;;;;;;15.57;12.30;;;23.50;99.90;;;;;;4918746;29;20179;-70
2022/08/26 05:03:14;;;;;;;16.55;12.82;;;23.50;99.90;;;;;;4899037;29;20281;-72
2022/08/26 05:05:41;;;;;;;16.83;13.55;;;23.50;99.90;;;;;;4900804;29;20175;-73
2022/08/26 05:08:12;;;;;;;17.52;14.07;;;23.50;99.90;;;;;;4913010;29;20194;-73
2022/08/26 05:10:39;;;;;;;16.67;13.48;;;23.50;99.90;;;;;;4909450;29;20182;-73
2022/08/26 05:13:05;;;;;;;15.73;13.70;;;23.50;99.90;;;;;;4894849;29;20193;-73
2022/08/26 05:15:31;;;;;;;19.45;15.05;;;23.50;99.90;;;;;;4917787;29;20273;-73
2022/08/26 05:17:59;;;;;;;18.90;15.43;;;23.50;99.90;;;;;;4887260;29;20212;-73
2022/08/26 05:20:25;;;;;;;18.60;15.38;;;23.50;99.90;;;;;;4914653;29;20192;-72
2022/08/26 05:22:50;;;;;;;15.57;12.90;;;23.50;99.90;;;;;;4931004;29;20194;-73
2022/08/26 05:25:17;;;;;;;16.40;11.90;;;23.50;99.90;;;;;;4925801;29;20179;-73
2022/08/26 05:27:43;;;;;;;17.15;14.35;;;23.40;99.90;;;;;;4899844;29;20230;-73
2022/08/26 05:30:14;;;;;;;17.70;13.13;;;23.40;99.90;;;;;;4900509;29;20186;-72
2022/08/26 05:32:45;;;;;;;13.60;11.23;;;23.40;99.90;;;;;;4916321;29;20170;-73
2022/08/26 05:35:13;;;;;;;13.90;11.07;;;23.40;99.90;;;;;;4916539;29;20269;-73
2022/08/26 05:37:39;;;;;;;16.33;12.40;;;23.40;99.90;;;;;;4916740;29;20175;-73
2022/08/26 05:40:05;;;;;;;13.32;10.70;;;23.40;99.90;;;;;;4919246;29;20232;-74
2022/08/26 05:42:33;;;;;;;16.35;11.70;;;23.40;99.90;;;;;;4937463;29;20209;-72
2022/08/26 05:44:59;;;;;;;14.80;11.73;;;23.50;99.90;;;;;;4929108;29;20242;-73
2022/08/26 05:47:33;;;;;;;16.63;11.88;;;23.50;99.90;;;;;;4928098;29;20182;-72
2022/08/26 05:49:59;;;;;;;16.67;10.43;;;23.50;99.90;;;;;;4933747;29;20182;-73
2022/08/26 05:52:27;;;;;;;11.52;9.95;;;23.50;99.90;;;;;;4921221;29;20241;-73
2022/08/26 05:54:55;;;;;;;15.07;11.48;;;23.50;99.90;;;;;;4907763;29;20175;-73
2022/08/26 05:57:23;;;;;;;12.65;10.40;;;23.50;99.90;;;;;;4900070;29;20195;-73
2022/08/26 05:59:51;;;;;;;13.55;10.07;;;23.50;99.90;;;;;;4908526;29;20201;-73
2022/08/26 06:02:21;;;;;;;12.63;11.32;;;23.50;99.90;;;;;;4915469;29;20203;-70
2022/08/26 06:04:47;;;;;;;13.88;10.10;;;23.50;99.90;;;;;;4902813;29;20202;-71
2022/08/26 06:07:13;;;;;;;10.95;9.40;;;23.50;99.90;;;;;;4917092;29;20198;-72
2022/08/26 06:09:38;;;;;;;12.25;10.05;;;23.50;99.90;;;;;;4909640;29;20178;-73
2022/08/26 06:12:04;;;;;;;12.05;10.40;;;23.50;99.90;;;;;;4915809;29;20179;-73
2022/08/26 06:14:30;;;;;;;11.43;10.00;;;23.60;99.90;;;;;;4915407;29;20202;-73
2022/08/26 06:16:59;;;;;;;13.75;9.82;;;23.60;99.90;;;;;;4915815;29;20202;-74
2022/08/26 06:19:25;;;;;;;12.77;10.23;;;23.60;99.90;;;;;;4899830;29;20269;-73
2022/08/26 06:21:51;;;;;;;11.75;9.07;;;23.60;99.90;;;;;;4911973;29;20231;-73
2022/08/26 06:27:19;;;;;;;12.77;9.55;;;23.60;99.90;;;;;;4880762;29;20188;-73
2022/08/26 06:29:45;;;;;;;11.68;10.02;;;23.60;99.90;;;;;;4896329;29;20176;-73
2022/08/26 06:32:14;;;;;;;11.93;10.13;;;23.70;99.90;;;;;;4896255;29;20230;-73
2022/08/26 06:34:40;;;;;;;10.80;9.70;;;23.70;99.90;;;;;;4896138;29;20433;-73
2022/08/26 06:37:06;;;;;;;11.80;9.85;;;23.70;99.90;;;;;;4896367;29;20252;-74
2022/08/26 06:39:36;;;;;;;15.93;10.43;;;23.70;99.90;;;;;;4918240;29;20277;-73
2022/08/26 06:42:02;;;;;;;13.98;9.40;;;23.70;99.90;;;;;;4923383;29;20238;-72
2022/08/26 06:44:28;;;;;;;14.25;9.93;;;23.70;99.90;;;;;;4915292;29;20182;-73
2022/08/26 06:46:54;;;;;;;13.07;10.13;;;23.70;99.90;;;;;;4914838;29;20210;-73
2022/08/26 06:49:19;;;;;;;10.80;9.32;;;23.80;99.90;;;;;;4915194;29;20218;-72
2022/08/26 06:51:47;;;;;;;11.48;9.18;;;23.80;99.90;;;;;;4899017;29;20179;-72
2022/08/26 06:54:15;;;;;;;12.82;9.73;;;23.80;99.90;;;;;;4899518;29;20174;-72
2022/08/26 06:56:42;;;;;;;11.18;9.10;;;23.80;99.90;;;;;;4899589;29;20187;-72
2022/08/26 06:59:10;;;;;;;11.82;8.85;;;23.80;99.90;;;;;;4906075;29;20174;-73
2022/08/26 07:01:45;;;;;;;11.13;9.32;;;23.80;99.90;;;;;;4902822;29;20230;-73
2022/08/26 07:04:14;;;;;;;12.65;9.00;;;23.80;99.90;;;;;;4919814;29;20242;-72
2022/08/26 07:06:41;;;;;;;15.20;11.05;;;23.80;99.90;;;;;;4905171;29;20178;-72
2022/08/26 07:09:08;;;;;;;14.00;11.10;;;23.80;99.90;;;;;;4922249;29;20213;-72
2022/08/26 07:11:37;;;;;;;15.80;12.80;;;23.90;99.90;;;;;;4908069;29;20202;-70
2022/08/26 07:14:04;;;;;;;14.57;12.63;;;23.90;99.90;;;;;;4917909;29;20194;-73
2022/08/26 07:16:30;;;;;;;15.73;12.77;;;23.90;99.90;;;;;;4903348;29;20179;-72
2022/08/26 07:18:57;;;;;;;14.93;11.45;;;23.90;99.90;;;;;;4915050;29;20297;-72
2022/08/26 07:21:23;;;;;;;14.48;10.93;;;23.90;99.90;;;;;;4919294;29;20216;-73
2022/08/26 07:23:49;;;;;;;14.70;9.55;;;23.90;99.90;;;;;;4918240;29;20190;-73
2022/08/26 07:26:19;;;;;;;13.98;9.50;;;23.90;99.90;;;;;;4918306;29;20199;-73
2022/08/26 07:28:49;;;;;;;13.38;10.30;;;23.90;99.90;;;;;;4906885;29;20207;-73
2022/08/26 07:31:18;;;;;;;11.50;9.73;;;23.90;99.90;;;;;;4913490;29;20171;-72
2022/08/26 07:33:44;;;;;;;13.20;10.63;;;23.90;99.90;;;;;;4902993;29;20203;-72
2022/08/26 07:36:15;;;;;;;13.70;9.30;;;23.90;99.90;;;;;;4918678;29;20175;-73
2022/08/26 07:38:43;;;;;;;12.38;8.40;;;23.90;99.90;;;;;;4919148;29;20178;-72
2022/08/26 07:41:12;;;;;;;13.70;10.40;;;24.00;99.90;;;;;;4918148;29;20209;-73
2022/08/26 07:43:39;;;;;;;14.60;12.18;;;24.00;99.90;;;;;;4901990;29;20250;-72
2022/08/26 07:46:07;;;;;;;14.63;12.70;;;24.00;99.90;;;;;;4902170;29;20178;-73
2022/08/26 07:48:38;;;;;;;17.70;14.82;;;24.00;99.90;;;;;;4917649;29;20178;-72
2022/08/26 07:51:04;;;;;;;18.17;14.52;;;24.00;99.90;;;;;;4903748;29;20193;-73
2022/08/26 07:53:34;;;;;;;21.10;14.82;;;24.10;99.90;;;;;;4902461;29;20175;-72
2022/08/26 07:55:59;;;;;;;19.17;14.93;;;24.10;99.90;;;;;;4902297;29;20175;-72
2022/08/26 07:58:27;;;;;;;15.93;12.82;;;24.00;99.90;;;;;;4903595;29;20193;-72
2022/08/26 08:00:53;;;;;;;13.75;10.73;;;24.00;99.90;;;;;;4902210;29;20175;-72
2022/08/26 08:03:22;;;;;;;15.55;11.70;;;24.10;99.90;;;;;;4914254;29;20220;-72
2022/08/26 08:05:47;;;;;;;11.68;10.05;;;24.10;99.90;;;;;;4918195;29;20181;-73
2022/08/26 08:08:14;;;;;;;16.40;9.75;;;24.10;99.90;;;;;;4918531;29;20186;-72
2022/08/26 08:10:40;;;;;;;13.35;10.30;;;24.10;99.90;;;;;;4920929;29;20193;-73
2022/08/26 08:13:07;;;;;;;11.65;9.48;;;24.10;99.90;;;;;;4937340;29;20182;-72
2022/08/26 08:15:36;;;;;;;11.90;9.55;;;24.10;99.90;;;;;;4921281;29;20174;-72
2022/08/26 08:18:06;;;;;;;11.40;8.32;;;24.10;99.90;;;;;;4936687;29;20182;-73
2022/08/26 08:20:33;;;;;;;13.80;10.65;;;24.10;99.90;;;;;;4933286;29;20183;-72
2022/08/26 08:23:00;;;;;;;12.82;10.52;;;24.10;99.90;;;;;;4901935;29;20199;-72
2022/08/26 08:25:28;;;;;;;15.63;10.63;;;24.10;99.90;;;;;;4902290;29;20270;-73
2022/08/26 08:27:53;;;;;;;13.02;10.57;;;24.10;99.90;;;;;;4918266;29;20183;-72
2022/08/26 08:30:23;;;;;;;14.88;10.48;;;24.10;99.90;;;;;;4917204;29;20178;-73
2022/08/26 08:32:51;;;;;;;13.80;10.32;;;24.10;99.90;;;;;;4917386;29;20289;-72
2022/08/26 08:35:21;;;;;;;14.48;11.20;;;24.10;99.90;;;;;;4919590;29;20178;-72
2022/08/26 08:37:52;;;;;;;13.07;10.25;;;24.10;99.90;;;;;;4915327;29;20411;-73
2022/08/26 08:40:20;;;;;;;12.95;10.35;;;24.10;99.90;;;;;;4898252;29;20271;-73
2022/08/26 08:43:02;;;;;;;11.73;9.13;;;24.10;99.90;;;;;;4901671;29;20194;-72
2022/08/26 08:45:35;;;;;;;15.98;11.77;;;24.10;99.90;;;;;;4901465;29;20167;-73
2022/08/26 08:48:13;;;;;;;12.95;10.13;;;24.20;99.90;;;;;;4901371;29;20195;-73
2022/08/26 08:50:49;;;;;;;12.70;10.55;;;24.20;99.90;;;;;;4901923;29;20178;-73
2022/08/26 08:53:17;;;;;;;12.70;9.40;;;24.20;99.90;;;;;;4902237;29;20182;-72
2022/08/26 08:55:50;;;;;;;15.45;9.70;;;24.30;99.90;;;;;;4902498;29;20237;-73
2022/08/26 08:58:23;;;;;;;12.18;8.25;;;24.30;99.90;;;;;;4919820;29;20189;-73
2022/08/26 09:01:03;;;;;;;9.82;8.18;;;24.30;99.90;;;;;;4908427;29;20187;-74
2022/08/26 09:03:50;;;;;;;11.13;8.35;;;24.30;99.90;;;;;;4916729;29;20316;-74
2022/08/26 09:06:17;;;;;;;10.45;8.30;;;24.30;99.90;;;;;;4900653;29;20238;-73
2022/08/26 09:08:47;;;;;;;11.45;9.00;;;24.30;99.90;;;;;;4916485;29;20182;-73
2022/08/26 09:11:14;;;;;;;11.90;8.80;;;24.20;99.90;;;;;;4901602;29;20202;-74
2022/08/26 09:13:51;;;;;;;10.52;8.30;;;24.20;99.90;;;;;;4916646;29;20195;-74
2022/08/26 09:16:26;;;;;;;18.75;11.05;;;24.20;99.90;;;;;;4900956;29;20185;-75
2022/08/26 09:19:13;;;;;;;12.07;10.55;;;24.20;99.90;;;;;;4884704;29;20197;-74
2022/08/26 09:21:41;;;;;;;20.17;13.10;;;24.20;99.90;;;;;;4916003;29;20257;-72
2022/08/26 09:24:08;;;;;;;20.92;11.63;;;24.10;99.90;;;;;;4910129;29;20191;-74
2022/08/26 09:26:41;;;;;;;14.93;12.43;;;24.10;99.90;;;;;;4900438;29;20187;-74
2022/08/26 09:29:19;;;;;;;14.93;12.00;;;24.10;99.90;;;;;;4900222;29;20181;-74
2022/08/26 09:31:45;;;;;;;14.40;11.75;;;24.10;99.90;;;;;;4900138;29;20198;-73
2022/08/26 09:34:23;;;;;;;17.52;12.73;;;24.10;99.90;;;;;;4907440;29;20234;-74
2022/08/26 09:36:59;;;;;;;19.77;16.05;;;24.20;99.90;;;;;;4922963;29;20175;-73
2022/08/26 09:39:29;;;;;;;20.67;15.98;;;24.20;99.90;;;;;;4898750;29;20191;-73
2022/08/26 09:42:07;;;;;;;25.00;18.27;;;24.30;99.90;;;;;;4905976;29;20213;-74
2022/08/26 09:44:34;;;;;;;19.75;16.50;;;24.30;99.90;;;;;;4883730;29;20179;-73
2022/08/26 09:47:09;;;;;;;22.98;17.70;;;24.30;99.90;;;;;;4900494;29;20269;-73
2022/08/26 09:49:39;;;;;;;19.00;15.15;;;24.30;99.90;;;;;;4916818;29;20162;-74
2022/08/26 09:52:20;;;;;;;16.92;15.13;;;24.30;99.90;;;;;;4906117;29;20270;-73
2022/08/26 09:55:00;;;;;;;25.48;18.90;;;24.30;99.90;;;;;;4899684;29;20189;-74
2022/08/26 09:57:34;;;;;;;21.20;18.73;;;24.40;99.90;;;;;;4907402;29;20189;-73
2022/08/26 10:00:21;;;;;;;20.95;17.52;;;24.40;99.90;;;;;;4916219;29;20277;-74
2022/08/26 10:02:50;;;;;;;19.60;15.88;;;24.40;99.90;;;;;;4893180;29;20297;-74
2022/08/26 10:05:25;;;;;;;21.02;17.67;;;24.40;99.90;;;;;;4900237;29;20179;-74
2022/08/26 10:07:51;;;;;;;17.88;16.00;;;24.40;99.90;;;;;;4899087;29;20398;-73
2022/08/26 10:10:26;;;;;;;23.70;17.33;;;24.40;99.90;;;;;;4899413;29;20282;-74
2022/08/26 10:13:16;;;;;;;23.75;18.92;;;24.40;99.90;;;;;;4915672;29;20205;-73
2022/08/26 10:15:51;;;;;;;24.70;21.92;;;24.40;99.90;;;;;;4911613;29;20190;-76
2022/08/26 10:18:25;;;;;;;24.20;21.65;;;24.40;99.90;;;;;;4912055;29;20206;-75
2022/08/26 10:21:01;;;;;;;28.98;24.13;;;24.40;99.90;;;;;;4901650;29;20178;-74
2022/08/26 10:23:29;;;;;;;27.27;23.63;;;24.40;99.90;;;;;;4915292;29;20210;-74
2022/08/26 10:26:13;;;;;;;21.95;19.65;;;24.40;99.90;;;;;;4898855;29;20198;-73
2022/08/26 10:29:32;;;;;;;20.60;18.40;;;24.30;99.90;;;;;;4880592;29;20179;-75
2022/08/26 10:32:02;;;;;;;21.35;16.60;;;24.30;99.90;;;;;;4865353;29;20259;-75
2022/08/26 10:34:30;;;;;;;17.52;15.70;;;24.30;99.90;;;;;;4896308;29;20184;-73
2022/08/26 10:37:07;;;;;;;19.38;16.67;;;24.30;99.90;;;;;;4920621;29;20182;-73
2022/08/26 10:39:47;;;;;;;20.30;17.35;;;24.30;99.90;;;;;;4915192;29;20206;-73
2022/08/26 10:42:25;;;;;;;16.00;14.35;;;24.30;99.90;;;;;;4898974;29;20222;-74
2022/08/26 10:44:59;;;;;;;15.10;13.60;;;24.30;99.90;;;;;;4915090;29;20176;-73
2022/08/26 10:47:34;;;;;;;13.13;11.13;;;24.30;99.90;;;;;;4898444;29;20175;-74
2022/08/26 10:50:02;;;;;;;12.15;9.65;;;24.30;99.90;;;;;;4914751;29;20241;-74
2022/08/26 10:52:28;;;;;;;14.73;9.35;;;24.30;99.90;;;;;;4901842;29;20184;-74
2022/08/26 10:55:38;;;;;;;12.02;10.70;;;24.30;99.90;;;;;;4919102;29;20266;-73
2022/08/26 10:58:39;;;;;;;12.15;10.63;;;24.30;99.90;;;;;;4901454;29;20195;-74
2022/08/26 11:04:36;;;;;;;16.02;12.70;;;24.30;99.90;;;;;;4881185;29;20222;-73
2022/08/26 11:07:35;;;;;;;14.88;12.82;;;24.30;99.90;;;;;;4881145;29;20164;-73
2022/08/26 11:10:19;;;;;;;15.38;13.50;;;24.30;99.90;;;;;;4881378;29;20536;-73
2022/08/26 11:12:51;;;;;;;15.02;12.43;;;24.30;99.90;;;;;;4896601;29;20202;-73
2022/08/26 11:15:22;;;;;;;13.18;11.30;;;24.30;99.90;;;;;;4905831;29;20205;-71
2022/08/26 11:17:50;;;;;;;13.70;12.18;;;24.30;99.90;;;;;;4898920;29;20475;-72
2022/08/26 11:20:24;;;;;;;15.98;12.50;;;24.30;99.90;;;;;;4900004;29;20187;-74
2022/08/26 11:22:54;;;;;;;15.27;13.32;;;24.40;99.90;;;;;;4914883;29;20207;-74
2022/08/26 11:25:24;;;;;;;19.63;12.15;;;24.50;99.90;;;;;;4914619;29;20175;-71
2022/08/26 11:27:52;;;;;;;18.00;14.90;;;24.50;99.90;;;;;;4899294;29;20179;-74
2022/08/26 11:30:20;;;;;;;16.58;13.55;;;24.60;99.90;;;;;;4914910;29;20185;-75
2022/08/26 11:32:52;;;;;;;18.73;14.43;;;24.70;99.90;;;;;;4911844;29;20179;-75
2022/08/26 11:35:22;;;;;;;14.18;12.60;;;24.70;99.90;;;;;;4907072;29;20178;-74
2022/08/26 11:37:56;;;;;;;12.48;11.27;;;24.70;99.90;;;;;;4923396;29;20191;-74
2022/08/26 11:40:29;;;;;;;14.80;10.50;;;24.80;99.90;;;;;;4903553;29;20268;-74
2022/08/26 11:42:59;;;;;;;13.60;10.45;;;24.80;99.90;;;;;;4914681;29;20241;-73
2022/08/26 11:45:46;;;;;;;12.45;9.00;;;24.90;99.90;;;;;;4917554;29;20363;-73
2022/08/26 11:48:29;;;;;;;10.75;9.45;;;25.00;99.90;;;;;;4929702;29;20182;-74
2022/08/26 11:51:01;;;;;;;9.07;8.18;;;25.10;99.90;;;;;;4922841;29;20229;-75
2022/08/26 11:53:31;;;;;;;7.93;6.85;;;25.10;99.90;;;;;;4906058;29;20179;-74
2022/08/26 11:56:03;;;;;;;11.13;8.15;;;25.20;99.90;;;;;;4901654;29;20186;-72
2022/08/26 11:58:30;;;;;;;8.80;7.35;;;25.20;99.90;;;;;;4903020;29;20182;-73
2022/08/26 12:01:05;;;;;;;8.40;7.25;;;25.20;99.90;;;;;;4900995;29;20179;-74
2022/08/26 12:03:54;;;;;;;8.15;7.20;;;25.30;99.90;;;;;;4917724;29;20323;-74
2022/08/26 12:06:40;;;;;;;10.35;8.13;;;25.30;99.90;;;;;;4898978;29;20186;-75
2022/08/26 12:09:13;;;;;;;10.70;9.63;;;25.30;99.90;;;;;;4887164;29;20175;-74
2022/08/26 12:11:39;;;;;;;9.65;8.50;;;25.40;99.90;;;;;;4883782;29;20207;-76
2022/08/26 12:14:15;;;;;;;8.85;7.90;;;25.40;99.90;;;;;;4897431;29;20258;-73
2022/08/26 12:16:44;;;;;;;11.48;8.23;;;25.40;99.90;;;;;;4907316;29;20195;-73
2022/08/26 12:19:30;;;;;;;12.38;8.55;;;25.50;99.90;;;;;;4902977;29;20206;-73
2022/08/26 12:22:07;;;;;;;12.07;9.82;;;25.60;99.90;;;;;;4903067;29;20204;-74
2022/08/26 12:24:34;;;;;;;9.93;8.45;;;25.60;99.90;;;;;;4901743;29;20190;-74
2022/08/26 12:27:23;;;;;;;7.55;6.75;;;25.60;99.90;;;;;;4902047;29;20179;-74
2022/08/26 12:30:24;;;;;;;8.55;6.03;;;25.60;99.90;;;;;;4901710;29;20182;-73
2022/08/26 12:33:01;;;;;;;7.80;5.45;;;25.60;99.90;;;;;;4901745;29;20209;-74
2022/08/26 12:35:27;;;;;;;5.85;5.20;;;25.60;99.90;;;;;;4901398;29;20190;-73
2022/08/26 12:37:54;;;;;;;7.95;5.00;;;25.60;99.90;;;;;;4917440;29;20179;-73
2022/08/26 12:40:42;;;;;;;5.45;3.83;;;25.60;99.90;;;;;;4916962;29;20293;-74
2022/08/26 12:43:14;;;;;;;5.25;3.42;;;25.60;99.90;;;;;;4916963;29;20191;-73
2022/08/26 12:45:59;;;;;;;5.53;3.33;;;25.60;99.90;;;;;;4901331;29;20170;-73
2022/08/26 12:48:30;;;;;;;5.45;3.40;;;25.60;99.90;;;;;;4901384;29;20198;-74
2022/08/26 12:50:58;;;;;;;4.82;3.38;;;25.50;99.90;;;;;;4901181;29;20175;-74
2022/08/26 12:53:30;;;;;;;5.78;3.42;;;25.50;99.90;;;;;;4910352;29;20191;-73
2022/08/26 12:56:17;;;;;;;8.45;3.92;;;25.60;99.90;;;;;;4916950;29;20167;-75
2022/08/26 12:59:24;;;;;;;6.22;4.18;;;25.60;99.90;;;;;;4911944;29;20174;-74
2022/08/26 13:01:52;;;;;;;7.03;4.10;;;25.70;99.90;;;;;;4934993;29;20218;-74